sensor_id;sensor_type;location;lat;lon;timestamp;P1;durP1;ratioP1;P2;durP2;ratioP2
22606;SDS011;11470;20.968;105.834;2022-12-20T00:02:25;134.97;;;63.40;;
22606;SDS011;11470;20.968;105.834;2022-12-20T00:07:31;133.83;;;60.30;;
22606;SDS011;11470;20.968;105.834;2022-12-20T00:12:37;124.28;;;59.35;;
22606;SDS011;11470;20.968;105.834;2022-12-20T00:17:42;119.53;;;58.53;;
22606;SDS011;11470;20.968;105.834;2022-12-20T00:22:48;128.80;;;63.37;;
22606;SDS011;11470;20.968;105.834;2022-12-20T00:27:54;129.93;;;66.47;;
22606;SDS011;11470;20.968;105.834;2022-12-20T00:32:59;137.67;;;65.67;;
22606;SDS011;11470;20.968;105.834;2022-12-20T00:38:05;128.43;;;64.63;;
22606;SDS011;11470;20.968;105.834;2022-12-20T00:43:10;121.13;;;59.97;;
22606;SDS011;11470;20.968;105.834;2022-12-20T00:48:17;129.40;;;66.07;;
22606;SDS011;11470;20.968;105.834;2022-12-20T00:53:22;126.27;;;61.90;;
22606;SDS011;11470;20.968;105.834;2022-12-20T00:58:28;125.80;;;61.53;;
22606;SDS011;11470;20.968;105.834;2022-12-20T01:03:34;128.77;;;60.90;;
22606;SDS011;11470;20.968;105.834;2022-12-20T01:08:40;130.00;;;58.83;;
22606;SDS011;11470;20.968;105.834;2022-12-20T01:13:47;124.15;;;59.53;;
22606;SDS011;11470;20.968;105.834;2022-12-20T01:18:53;138.55;;;67.97;;
22606;SDS011;11470;20.968;105.834;2022-12-20T01:23:59;127.15;;;63.55;;
22606;SDS011;11470;20.968;105.834;2022-12-20T01:29:05;124.47;;;64.97;;
22606;SDS011;11470;20.968;105.834;2022-12-20T01:34:10;131.85;;;68.97;;
22606;SDS011;11470;20.968;105.834;2022-12-20T01:39:17;120.03;;;61.07;;
22606;SDS011;11470;20.968;105.834;2022-12-20T01:49:47;77.53;;;43.87;;
22606;SDS011;11470;20.968;105.834;2022-12-20T01:54:54;107.68;;;52.55;;
22606;SDS011;11470;20.968;105.834;2022-12-20T02:00:00;82.35;;;41.03;;
22606;SDS011;11470;20.968;105.834;2022-12-20T02:05:15;91.03;;;43.47;;
22606;SDS011;11470;20.968;105.834;2022-12-20T02:10:23;154.52;;;80.20;;
22606;SDS011;11470;20.968;105.834;2022-12-20T02:20:49;154.55;;;81.63;;
22606;SDS011;11470;20.968;105.834;2022-12-20T02:31:18;154.38;;;79.85;;
22606;SDS011;11470;20.968;105.834;2022-12-20T02:36:25;163.43;;;95.82;;
22606;SDS011;11470;20.968;105.834;2022-12-20T02:41:41;148.95;;;81.95;;
22606;SDS011;11470;20.968;105.834;2022-12-20T02:46:48;106.05;;;61.25;;
22606;SDS011;11470;20.968;105.834;2022-12-20T02:51:54;116.72;;;62.95;;
22606;SDS011;11470;20.968;105.834;2022-12-20T02:57:12;92.05;;;50.42;;
22606;SDS011;11470;20.968;105.834;2022-12-20T03:02:19;144.90;;;83.00;;
22606;SDS011;11470;20.968;105.834;2022-12-20T03:07:25;143.20;;;77.70;;
22606;SDS011;11470;20.968;105.834;2022-12-20T03:12:33;154.13;;;82.97;;
22606;SDS011;11470;20.968;105.834;2022-12-20T03:17:38;123.70;;;63.23;;
22606;SDS011;11470;20.968;105.834;2022-12-20T03:22:47;153.43;;;82.47;;
22606;SDS011;11470;20.968;105.834;2022-12-20T03:27:52;161.85;;;89.38;;
22606;SDS011;11470;20.968;105.834;2022-12-20T03:32:59;135.20;;;72.90;;
22606;SDS011;11470;20.968;105.834;2022-12-20T03:38:05;129.88;;;71.93;;
22606;SDS011;11470;20.968;105.834;2022-12-20T03:43:14;159.98;;;88.15;;
22606;SDS011;11470;20.968;105.834;2022-12-20T03:48:20;135.77;;;76.07;;
22606;SDS011;11470;20.968;105.834;2022-12-20T03:53:26;122.50;;;68.53;;
22606;SDS011;11470;20.968;105.834;2022-12-20T03:58:32;119.90;;;66.90;;
22606;SDS011;11470;20.968;105.834;2022-12-20T04:03:38;119.35;;;62.67;;
22606;SDS011;11470;20.968;105.834;2022-12-20T04:13:57;109.30;;;61.65;;
22606;SDS011;11470;20.968;105.834;2022-12-20T04:19:03;111.28;;;63.65;;
22606;SDS011;11470;20.968;105.834;2022-12-20T04:24:14;108.22;;;58.08;;
22606;SDS011;11470;20.968;105.834;2022-12-20T04:29:39;102.35;;;53.08;;
22606;SDS011;11470;20.968;105.834;2022-12-20T04:34:49;97.03;;;52.60;;
22606;SDS011;11470;20.968;105.834;2022-12-20T04:39:55;74.40;;;40.93;;
22606;SDS011;11470;20.968;105.834;2022-12-20T04:45:14;106.50;;;55.85;;
22606;SDS011;11470;20.968;105.834;2022-12-20T04:50:25;94.50;;;51.55;;
22606;SDS011;11470;20.968;105.834;2022-12-20T04:55:32;97.13;;;51.50;;
22606;SDS011;11470;20.968;105.834;2022-12-20T05:00:41;97.15;;;51.88;;
22606;SDS011;11470;20.968;105.834;2022-12-20T05:05:56;85.03;;;46.28;;
22606;SDS011;11470;20.968;105.834;2022-12-20T05:11:03;77.75;;;43.42;;
22606;SDS011;11470;20.968;105.834;2022-12-20T05:16:13;100.97;;;52.28;;
22606;SDS011;11470;20.968;105.834;2022-12-20T05:21:20;91.00;;;49.40;;
22606;SDS011;11470;20.968;105.834;2022-12-20T05:26:44;65.75;;;39.40;;
22606;SDS011;11470;20.968;105.834;2022-12-20T05:31:51;80.00;;;42.53;;
22606;SDS011;11470;20.968;105.834;2022-12-20T05:36:59;88.35;;;46.88;;
22606;SDS011;11470;20.968;105.834;2022-12-20T05:42:19;87.35;;;45.53;;
22606;SDS011;11470;20.968;105.834;2022-12-20T05:47:27;88.03;;;47.03;;
22606;SDS011;11470;20.968;105.834;2022-12-20T05:52:41;87.95;;;49.45;;
22606;SDS011;11470;20.968;105.834;2022-12-20T05:57:52;92.32;;;46.63;;
22606;SDS011;11470;20.968;105.834;2022-12-20T06:03:13;83.40;;;50.03;;
22606;SDS011;11470;20.968;105.834;2022-12-20T06:08:20;107.80;;;62.28;;
22606;SDS011;11470;20.968;105.834;2022-12-20T06:13:28;76.03;;;43.90;;
22606;SDS011;11470;20.968;105.834;2022-12-20T06:18:34;93.70;;;51.65;;
22606;SDS011;11470;20.968;105.834;2022-12-20T06:23:40;90.03;;;52.13;;
22606;SDS011;11470;20.968;105.834;2022-12-20T06:28:48;93.72;;;48.63;;
22606;SDS011;11470;20.968;105.834;2022-12-20T06:34:09;85.13;;;46.17;;
22606;SDS011;11470;20.968;105.834;2022-12-20T06:39:19;95.70;;;51.55;;
22606;SDS011;11470;20.968;105.834;2022-12-20T06:44:32;73.18;;;42.13;;
22606;SDS011;11470;20.968;105.834;2022-12-20T06:54:52;88.40;;;47.17;;
22606;SDS011;11470;20.968;105.834;2022-12-20T07:00:01;81.68;;;44.40;;
22606;SDS011;11470;20.968;105.834;2022-12-20T07:05:12;90.68;;;49.80;;
22606;SDS011;11470;20.968;105.834;2022-12-20T07:10:17;83.03;;;45.88;;
22606;SDS011;11470;20.968;105.834;2022-12-20T07:15:24;72.45;;;37.28;;
22606;SDS011;11470;20.968;105.834;2022-12-20T07:20:29;90.40;;;50.17;;
22606;SDS011;11470;20.968;105.834;2022-12-20T07:25:36;92.78;;;52.70;;
22606;SDS011;11470;20.968;105.834;2022-12-20T07:30:42;68.30;;;40.08;;
22606;SDS011;11470;20.968;105.834;2022-12-20T07:35:48;80.10;;;43.33;;
22606;SDS011;11470;20.968;105.834;2022-12-20T07:40:56;102.60;;;55.67;;
22606;SDS011;11470;20.968;105.834;2022-12-20T07:46:03;101.95;;;56.35;;
22606;SDS011;11470;20.968;105.834;2022-12-20T07:51:11;106.07;;;59.55;;
22606;SDS011;11470;20.968;105.834;2022-12-20T07:56:20;96.68;;;53.28;;
22606;SDS011;11470;20.968;105.834;2022-12-20T08:01:26;110.43;;;56.75;;
22606;SDS011;11470;20.968;105.834;2022-12-20T08:06:33;97.47;;;52.65;;
22606;SDS011;11470;20.968;105.834;2022-12-20T08:11:43;76.57;;;44.65;;
22606;SDS011;11470;20.968;105.834;2022-12-20T08:16:50;96.75;;;52.00;;
22606;SDS011;11470;20.968;105.834;2022-12-20T08:21:58;94.15;;;51.33;;
22606;SDS011;11470;20.968;105.834;2022-12-20T08:27:05;91.15;;;50.75;;
22606;SDS011;11470;20.968;105.834;2022-12-20T08:32:11;85.37;;;48.07;;
22606;SDS011;11470;20.968;105.834;2022-12-20T08:37:18;96.97;;;51.10;;
22606;SDS011;11470;20.968;105.834;2022-12-20T08:42:23;85.82;;;48.30;;
22606;SDS011;11470;20.968;105.834;2022-12-20T08:47:31;94.65;;;53.28;;
22606;SDS011;11470;20.968;105.834;2022-12-20T08:52:37;93.53;;;50.13;;
22606;SDS011;11470;20.968;105.834;2022-12-20T08:57:44;93.07;;;49.05;;
22606;SDS011;11470;20.968;105.834;2022-12-20T09:02:49;95.93;;;51.58;;
22606;SDS011;11470;20.968;105.834;2022-12-20T09:07:58;96.55;;;50.30;;
22606;SDS011;11470;20.968;105.834;2022-12-20T09:18:09;91.38;;;48.33;;
22606;SDS011;11470;20.968;105.834;2022-12-20T09:23:14;83.40;;;46.40;;
22606;SDS011;11470;20.968;105.834;2022-12-20T09:28:21;99.68;;;49.22;;
22606;SDS011;11470;20.968;105.834;2022-12-20T09:33:27;88.55;;;49.15;;
22606;SDS011;11470;20.968;105.834;2022-12-20T09:38:34;79.78;;;45.25;;
22606;SDS011;11470;20.968;105.834;2022-12-20T09:43:39;90.47;;;49.10;;
22606;SDS011;11470;20.968;105.834;2022-12-20T09:48:45;84.93;;;46.90;;
22606;SDS011;11470;20.968;105.834;2022-12-20T09:58:58;88.15;;;47.50;;
22606;SDS011;11470;20.968;105.834;2022-12-20T10:04:11;97.53;;;48.85;;
22606;SDS011;11470;20.968;105.834;2022-12-20T10:14:57;78.68;;;43.20;;
22606;SDS011;11470;20.968;105.834;2022-12-20T10:20:11;95.10;;;48.25;;
22606;SDS011;11470;20.968;105.834;2022-12-20T10:25:23;91.97;;;47.80;;
22606;SDS011;11470;20.968;105.834;2022-12-20T10:30:30;95.50;;;48.58;;
22606;SDS011;11470;20.968;105.834;2022-12-20T10:35:39;95.07;;;48.03;;
22606;SDS011;11470;20.968;105.834;2022-12-20T10:40:57;98.13;;;48.10;;
22606;SDS011;11470;20.968;105.834;2022-12-20T10:46:23;79.43;;;42.97;;
22606;SDS011;11470;20.968;105.834;2022-12-20T10:51:39;94.72;;;47.10;;
22606;SDS011;11470;20.968;105.834;2022-12-20T10:56:56;94.17;;;47.53;;
22606;SDS011;11470;20.968;105.834;2022-12-20T11:07:29;98.68;;;48.60;;
22606;SDS011;11470;20.968;105.834;2022-12-20T11:12:34;87.45;;;44.58;;
22606;SDS011;11470;20.968;105.834;2022-12-20T11:17:42;88.72;;;45.50;;
22606;SDS011;11470;20.968;105.834;2022-12-20T11:28:45;110.40;;;51.10;;
22606;SDS011;11470;20.968;105.834;2022-12-20T11:39:10;100.60;;;50.28;;
22606;SDS011;11470;20.968;105.834;2022-12-20T11:44:08;104.57;;;51.63;;
22606;SDS011;11470;20.968;105.834;2022-12-20T11:54:45;118.80;;;55.38;;
22606;SDS011;11470;20.968;105.834;2022-12-20T11:59:56;128.20;;;61.60;;
22606;SDS011;11470;20.968;105.834;2022-12-20T12:05:17;106.40;;;54.33;;
22606;SDS011;11470;20.968;105.834;2022-12-20T12:10:26;128.70;;;64.20;;
22606;SDS011;11470;20.968;105.834;2022-12-20T12:21:10;114.17;;;56.13;;
22606;SDS011;11470;20.968;105.834;2022-12-20T12:26:28;108.18;;;52.20;;
22606;SDS011;11470;20.968;105.834;2022-12-20T12:57:56;121.55;;;61.80;;
22606;SDS011;11470;20.968;105.834;2022-12-20T13:03:04;143.07;;;69.37;;
22606;SDS011;11470;20.968;105.834;2022-12-20T13:08:16;112.75;;;56.58;;
22606;SDS011;11470;20.968;105.834;2022-12-20T13:13:23;132.73;;;68.97;;
22606;SDS011;11470;20.968;105.834;2022-12-20T13:18:29;122.55;;;66.13;;
22606;SDS011;11470;20.968;105.834;2022-12-20T13:23:34;132.73;;;64.33;;
22606;SDS011;11470;20.968;105.834;2022-12-20T13:28:44;117.30;;;61.88;;
22606;SDS011;11470;20.968;105.834;2022-12-20T13:33:50;122.88;;;60.90;;
22606;SDS011;11470;20.968;105.834;2022-12-20T13:38:57;107.15;;;55.80;;
22606;SDS011;11470;20.968;105.834;2022-12-20T13:49:28;137.60;;;72.10;;
22606;SDS011;11470;20.968;105.834;2022-12-20T13:54:46;122.15;;;62.58;;
22606;SDS011;11470;20.968;105.834;2022-12-20T13:59:54;138.75;;;72.90;;
22606;SDS011;11470;20.968;105.834;2022-12-20T14:10:53;123.47;;;65.07;;
22606;SDS011;11470;20.968;105.834;2022-12-20T14:16:15;132.45;;;69.18;;
22606;SDS011;11470;20.968;105.834;2022-12-20T14:21:22;110.30;;;64.07;;
22606;SDS011;11470;20.968;105.834;2022-12-20T14:26:49;130.88;;;66.18;;
22606;SDS011;11470;20.968;105.834;2022-12-20T14:31:57;117.88;;;60.97;;
22606;SDS011;11470;20.968;105.834;2022-12-20T14:42:26;118.30;;;63.15;;
22606;SDS011;11470;20.968;105.834;2022-12-20T14:47:33;143.73;;;75.47;;
22606;SDS011;11470;20.968;105.834;2022-12-20T14:52:44;112.55;;;57.88;;
22606;SDS011;11470;20.968;105.834;2022-12-20T14:57:51;116.30;;;59.38;;
22606;SDS011;11470;20.968;105.834;2022-12-20T15:02:59;103.18;;;55.13;;
22606;SDS011;11470;20.968;105.834;2022-12-20T15:08:39;102.72;;;54.15;;
22606;SDS011;11470;20.968;105.834;2022-12-20T15:13:46;123.28;;;60.85;;
22606;SDS011;11470;20.968;105.834;2022-12-20T15:18:55;117.80;;;59.17;;
22606;SDS011;11470;20.968;105.834;2022-12-20T15:24:02;109.20;;;58.53;;
22606;SDS011;11470;20.968;105.834;2022-12-20T15:29:15;117.72;;;61.33;;
22606;SDS011;11470;20.968;105.834;2022-12-20T15:39:26;126.55;;;64.82;;
22606;SDS011;11470;20.968;105.834;2022-12-20T15:49:39;132.07;;;68.60;;
22606;SDS011;11470;20.968;105.834;2022-12-20T15:54:51;123.93;;;65.85;;
22606;SDS011;11470;20.968;105.834;2022-12-20T15:59:59;132.02;;;64.95;;
22606;SDS011;11470;20.968;105.834;2022-12-20T16:05:15;121.80;;;63.27;;
22606;SDS011;11470;20.968;105.834;2022-12-20T16:10:21;130.70;;;66.33;;
22606;SDS011;11470;20.968;105.834;2022-12-20T16:15:29;116.53;;;62.33;;
22606;SDS011;11470;20.968;105.834;2022-12-20T16:20:36;111.03;;;58.80;;
22606;SDS011;11470;20.968;105.834;2022-12-20T16:25:44;123.78;;;62.80;;
22606;SDS011;11470;20.968;105.834;2022-12-20T16:30:50;127.72;;;70.38;;
22606;SDS011;11470;20.968;105.834;2022-12-20T16:35:56;153.80;;;82.15;;
22606;SDS011;11470;20.968;105.834;2022-12-20T16:41:13;147.77;;;74.50;;
22606;SDS011;11470;20.968;105.834;2022-12-20T16:46:19;120.88;;;65.97;;
22606;SDS011;11470;20.968;105.834;2022-12-20T16:56:37;101.43;;;54.92;;
22606;SDS011;11470;20.968;105.834;2022-12-20T17:01:43;105.60;;;60.43;;
22606;SDS011;11470;20.968;105.834;2022-12-20T17:06:50;113.47;;;59.88;;
22606;SDS011;11470;20.968;105.834;2022-12-20T17:11:56;143.68;;;78.93;;
22606;SDS011;11470;20.968;105.834;2022-12-20T17:17:05;116.15;;;61.22;;
22606;SDS011;11470;20.968;105.834;2022-12-20T17:22:11;108.33;;;56.47;;
22606;SDS011;11470;20.968;105.834;2022-12-20T17:27:27;98.83;;;54.20;;
22606;SDS011;11470;20.968;105.834;2022-12-20T17:32:33;65.20;;;34.67;;
22606;SDS011;11470;20.968;105.834;2022-12-20T17:37:39;125.77;;;63.57;;
22606;SDS011;11470;20.968;105.834;2022-12-20T17:42:44;115.17;;;53.57;;
22606;SDS011;11470;20.968;105.834;2022-12-20T17:47:50;111.00;;;55.90;;
22606;SDS011;11470;20.968;105.834;2022-12-20T17:52:56;104.93;;;53.00;;
22606;SDS011;11470;20.968;105.834;2022-12-20T17:58:02;107.70;;;57.37;;
22606;SDS011;11470;20.968;105.834;2022-12-20T18:03:07;92.63;;;44.97;;
22606;SDS011;11470;20.968;105.834;2022-12-20T18:08:32;93.70;;;46.10;;
22606;SDS011;11470;20.968;105.834;2022-12-20T18:13:40;75.53;;;33.90;;
22606;SDS011;11470;20.968;105.834;2022-12-20T18:18:47;104.63;;;56.88;;
22606;SDS011;11470;20.968;105.834;2022-12-20T18:23:53;113.35;;;55.75;;
22606;SDS011;11470;20.968;105.834;2022-12-20T18:29:00;102.85;;;51.40;;
22606;SDS011;11470;20.968;105.834;2022-12-20T18:34:05;83.53;;;39.50;;
22606;SDS011;11470;20.968;105.834;2022-12-20T18:39:11;93.13;;;48.50;;
22606;SDS011;11470;20.968;105.834;2022-12-20T18:44:17;87.80;;;43.03;;
22606;SDS011;11470;20.968;105.834;2022-12-20T18:49:22;93.80;;;42.40;;
22606;SDS011;11470;20.968;105.834;2022-12-20T18:54:28;72.23;;;38.77;;
22606;SDS011;11470;20.968;105.834;2022-12-20T18:59:35;42.72;;;23.60;;
22606;SDS011;11470;20.968;105.834;2022-12-20T19:04:40;80.50;;;33.38;;
22606;SDS011;11470;20.968;105.834;2022-12-20T19:09:46;81.93;;;35.63;;
22606;SDS011;11470;20.968;105.834;2022-12-20T19:14:52;72.80;;;29.17;;
22606;SDS011;11470;20.968;105.834;2022-12-20T19:25:03;68.82;;;32.72;;
22606;SDS011;11470;20.968;105.834;2022-12-20T19:30:08;58.67;;;29.30;;
22606;SDS011;11470;20.968;105.834;2022-12-20T19:35:15;66.90;;;33.55;;
22606;SDS011;11470;20.968;105.834;2022-12-20T19:40:40;71.82;;;37.80;;
22606;SDS011;11470;20.968;105.834;2022-12-20T19:45:46;60.27;;;32.43;;
22606;SDS011;11470;20.968;105.834;2022-12-20T19:50:59;46.20;;;23.97;;
22606;SDS011;11470;20.968;105.834;2022-12-20T19:56:05;71.18;;;34.55;;
22606;SDS011;11470;20.968;105.834;2022-12-20T20:01:11;66.55;;;32.63;;
22606;SDS011;11470;20.968;105.834;2022-12-20T20:06:18;51.70;;;24.07;;
22606;SDS011;11470;20.968;105.834;2022-12-20T20:11:24;61.05;;;31.02;;
22606;SDS011;11470;20.968;105.834;2022-12-20T20:16:29;74.90;;;36.25;;
22606;SDS011;11470;20.968;105.834;2022-12-20T20:21:35;65.93;;;35.47;;
22606;SDS011;11470;20.968;105.834;2022-12-20T20:26:41;53.33;;;22.63;;
22606;SDS011;11470;20.968;105.834;2022-12-20T20:31:46;35.13;;;18.77;;
22606;SDS011;11470;20.968;105.834;2022-12-20T20:36:52;45.47;;;24.60;;
22606;SDS011;11470;20.968;105.834;2022-12-20T20:41:57;62.60;;;31.67;;
22606;SDS011;11470;20.968;105.834;2022-12-20T20:47:03;53.65;;;27.45;;
22606;SDS011;11470;20.968;105.834;2022-12-20T20:52:09;55.47;;;26.60;;
22606;SDS011;11470;20.968;105.834;2022-12-20T20:57:15;45.60;;;21.33;;
22606;SDS011;11470;20.968;105.834;2022-12-20T21:02:20;56.50;;;28.13;;
22606;SDS011;11470;20.968;105.834;2022-12-20T21:07:27;46.38;;;24.08;;
22606;SDS011;11470;20.968;105.834;2022-12-20T21:12:33;46.00;;;22.87;;
22606;SDS011;11470;20.968;105.834;2022-12-20T21:17:39;31.98;;;15.45;;
22606;SDS011;11470;20.968;105.834;2022-12-20T21:22:44;29.23;;;14.07;;
22606;SDS011;11470;20.968;105.834;2022-12-20T21:27:50;37.80;;;19.95;;
22606;SDS011;11470;20.968;105.834;2022-12-20T21:32:55;28.50;;;13.67;;
22606;SDS011;11470;20.968;105.834;2022-12-20T21:38:01;31.13;;;16.63;;
22606;SDS011;11470;20.968;105.834;2022-12-20T21:43:06;31.10;;;16.97;;
22606;SDS011;11470;20.968;105.834;2022-12-20T21:48:13;41.50;;;19.67;;
22606;SDS011;11470;20.968;105.834;2022-12-20T21:53:19;27.77;;;12.75;;
22606;SDS011;11470;20.968;105.834;2022-12-20T21:58:26;37.88;;;15.20;;
22606;SDS011;11470;20.968;105.834;2022-12-20T22:03:32;37.78;;;17.85;;
22606;SDS011;11470;20.968;105.834;2022-12-20T22:08:38;45.97;;;20.47;;
22606;SDS011;11470;20.968;105.834;2022-12-20T22:13:44;50.23;;;27.50;;
22606;SDS011;11470;20.968;105.834;2022-12-20T22:18:51;38.58;;;17.58;;
22606;SDS011;11470;20.968;105.834;2022-12-20T22:23:57;49.35;;;23.33;;
22606;SDS011;11470;20.968;105.834;2022-12-20T22:29:04;42.35;;;19.35;;
22606;SDS011;11470;20.968;105.834;2022-12-20T22:34:09;41.90;;;19.38;;
22606;SDS011;11470;20.968;105.834;2022-12-20T22:39:15;49.80;;;25.10;;
22606;SDS011;11470;20.968;105.834;2022-12-20T22:44:20;55.08;;;27.30;;
22606;SDS011;11470;20.968;105.834;2022-12-20T22:49:26;52.17;;;26.15;;
22606;SDS011;11470;20.968;105.834;2022-12-20T22:54:31;46.40;;;25.17;;
22606;SDS011;11470;20.968;105.834;2022-12-20T22:59:37;44.67;;;23.57;;
22606;SDS011;11470;20.968;105.834;2022-12-20T23:04:43;36.93;;;12.57;;
22606;SDS011;11470;20.968;105.834;2022-12-20T23:09:49;48.30;;;23.83;;
22606;SDS011;11470;20.968;105.834;2022-12-20T23:14:54;63.20;;;29.17;;
22606;SDS011;11470;20.968;105.834;2022-12-20T23:20:29;56.13;;;25.60;;
22606;SDS011;11470;20.968;105.834;2022-12-20T23:25:52;50.50;;;22.98;;
22606;SDS011;11470;20.968;105.834;2022-12-20T23:31:01;48.83;;;23.93;;
22606;SDS011;11470;20.968;105.834;2022-12-20T23:36:07;33.90;;;16.80;;
22606;SDS011;11470;20.968;105.834;2022-12-20T23:41:13;39.60;;;19.57;;
22606;SDS011;11470;20.968;105.834;2022-12-20T23:46:19;39.03;;;16.05;;
22606;SDS011;11470;20.968;105.834;2022-12-20T23:51:26;57.47;;;23.83;;
22606;SDS011;11470;20.968;105.834;2022-12-20T23:56:31;49.35;;;20.48;;
